Řízení letového provozu České republiky
Letiste: LKKB Aktualizace: 16.12.2017 22:08:11  UTC
 METAR LKKB 16.12. 22:00 ...
METAR LKKB 162200Z 24009KT CAVOK 02/M02 Q1013=
 TAF LKKB 16.12. 17:00 ...
TAF LKKB 161700Z 1618/1718 25010KT 9999 SCT025 BKN045      TEMPO 1618/1707 7000 SNRA SCT020 OVC035      TEMPO 1618/1704 5000 SN BKN015 OVC030      BECMG 1712/1714 29008KT      TEMPO 1712/1718 7000 SHSNRA SCT025 BKN035=